Terminal Aerodrome Forecast
Issued by NWS

Home | Current Version | Previous Version | Text Only | Print | Product List | Glossary Off
Versions: 1 2 3 4 5 6 7 8 9 10 11 12 13 14 15 16 17 18 19 20 21 22 23 24 25 26 27

142
FTUS43 KGRB 251131
TAFATW
TAF
KATW 251131Z 2512/2612 15009KT P6SM SCT250
     FM251700 16010G15KT P6SM BKN200
     FM252200 13007KT P6SM BKN090
     FM260200 12007KT P6SM OVC090 WS014/15030KT
     FM260300 12007KT P6SM -SHRA OVC070 WS016/17035KT
     FM260800 13008KT P6SM -SHRA OVC050 WS020/19035KT=

USA.gov is the U.S. government's official web portal to all federal, state and local government web resources and services.